createdAt,value
2019-02-05T00:02:14.375Z,100404.47
2019-02-05T00:04:44.875Z,100405.00
2019-02-05T00:07:15.292Z,100408.21
2019-02-05T00:09:45.822Z,100411.98
2019-02-05T00:12:16.282Z,100413.34
2019-02-05T00:14:46.800Z,100407.31
2019-02-05T00:17:17.379Z,100405.95
2019-02-05T00:19:48.010Z,100401.56
2019-02-05T00:22:18.482Z,100404.60
2019-02-05T00:24:48.999Z,100404.28
2019-02-05T00:27:19.511Z,100411.91
2019-02-05T00:29:49.972Z,100424.11
2019-02-05T00:32:20.494Z,100413.66
2019-02-05T00:34:50.966Z,100415.70
2019-02-05T00:37:21.859Z,100408.93
2019-02-05T00:39:52.371Z,100411.64
2019-02-05T00:42:22.894Z,100414.81
2019-02-05T00:44:53.365Z,100411.98
2019-02-05T00:47:24.007Z,100414.08
2019-02-05T00:49:54.482Z,100302.73
2019-02-05T00:52:24.999Z,100412.56
2019-02-05T00:54:55.500Z,100413.84
2019-02-05T00:57:25.963Z,100425.63
2019-02-05T00:59:56.430Z,100426.59
2019-02-05T01:02:27.057Z,100428.60
2019-02-05T01:04:57.698Z,100424.38
2019-02-05T01:07:28.165Z,100420.11
2019-02-05T01:09:58.667Z,100421.59
2019-02-05T01:12:29.236Z,100419.13
2019-02-05T01:14:59.746Z,100415.72
2019-02-05T01:17:30.599Z,100425.81
2019-02-05T01:20:01.117Z,100426.26
2019-02-05T01:22:31.614Z,100416.45
2019-02-05T01:25:02.090Z,100419.73
2019-02-05T01:27:32.579Z,100413.37
2019-02-05T01:30:03.141Z,100417.44
2019-02-05T01:32:33.651Z,100417.88
2019-02-05T01:35:04.426Z,100416.44
2019-02-05T01:37:35.038Z,100419.36
2019-02-05T01:40:06.987Z,100419.77
2019-02-05T01:42:37.499Z,100420.50
2019-02-05T01:45:09.964Z,100419.59
2019-02-05T01:47:40.578Z,100419.38
2019-02-05T01:50:11.732Z,100413.03
2019-02-05T01:52:42.206Z,100414.30
2019-02-05T01:55:12.939Z,100419.09
2019-02-05T01:57:43.792Z,100421.80
2019-02-05T02:00:17.161Z,100429.09
2019-02-05T02:02:47.737Z,100424.64
2019-02-05T02:05:18.626Z,100430.97
2019-02-05T02:07:49.321Z,100429.52
2019-02-05T02:10:22.357Z,100423.91
2019-02-05T02:12:53.016Z,100420.88
2019-02-05T02:15:23.634Z,100428.59
2019-02-05T02:17:54.311Z,100429.31
2019-02-05T02:20:25.082Z,100426.08
2019-02-05T02:22:56.182Z,100430.67
2019-02-05T02:25:26.666Z,100426.28
2019-02-05T02:27:57.233Z,100425.66
2019-02-05T02:30:38.765Z,100428.48
2019-02-05T02:33:09.578Z,100313.28
2019-02-05T02:35:40.259Z,100426.84
2019-02-05T02:38:10.948Z,100427.86
2019-02-05T02:40:41.549Z,100419.03
2019-02-05T02:43:12.023Z,100413.83
2019-02-05T02:45:42.481Z,100422.47
2019-02-05T02:48:13.264Z,100425.71
2019-02-05T02:50:43.728Z,100427.27
2019-02-05T02:53:14.240Z,100425.29
2019-02-05T02:55:44.697Z,100426.55
2019-02-05T02:58:15.194Z,100419.37
2019-02-05T03:00:45.699Z,100426.36
2019-02-05T03:03:16.194Z,100425.12
2019-02-05T03:05:46.693Z,100428.23
2019-02-05T03:08:17.193Z,100428.34
2019-02-05T03:10:47.647Z,100428.64
2019-02-05T03:13:18.147Z,100430.33
2019-02-05T03:15:48.752Z,100434.30
2019-02-05T03:18:19.296Z,100436.58
2019-02-05T03:20:49.757Z,100432.82
2019-02-05T03:23:20.328Z,100434.60
2019-02-05T03:25:50.835Z,100426.07
2019-02-05T03:28:21.302Z,100435.01
2019-02-05T03:30:51.795Z,100434.91
2019-02-05T03:33:23.890Z,100435.93
2019-02-05T03:35:54.525Z,100439.36
2019-02-05T03:38:25.002Z,100440.09
2019-02-05T03:41:03.196Z,100443.31
2019-02-05T03:43:34.520Z,100447.56
2019-02-05T03:46:09.873Z,100449.44
2019-02-05T03:48:42.120Z,100451.32
2019-02-05T03:51:46.378Z,100445.91
2019-02-05T03:54:35.387Z,100443.22
2019-02-05T03:58:10.578Z,100441.86
2019-02-05T04:01:12.272Z,100436.23
2019-02-05T04:03:54.595Z,100439.06
2019-02-05T04:06:45.711Z,100442.59
2019-02-05T04:09:41.647Z,100445.42
2019-02-05T04:13:01.589Z,100445.09
2019-02-05T04:16:15.941Z,100457.16
2019-02-05T04:19:25.884Z,100447.38
2019-02-05T04:22:23.172Z,100451.24
2019-02-05T04:26:04.239Z,100442.07
2019-02-05T04:29:20.832Z,100444.15
2019-02-05T04:32:20.079Z,100443.66
2019-02-05T04:35:18.608Z,100449.27
2019-02-05T04:38:25.302Z,100454.45
2019-02-05T04:41:39.245Z,100452.67
2019-02-05T04:44:47.902Z,100450.30
2019-02-05T04:47:36.297Z,100460.69
2019-02-05T04:50:30.100Z,100457.59
2019-02-05T04:53:30.563Z,100462.66
2019-02-05T04:56:39.858Z,100462.75
2019-02-05T04:59:58.850Z,100461.90
2019-02-05T05:02:42.304Z,100457.25
2019-02-05T05:05:33.307Z,100459.52
2019-02-05T05:08:32.591Z,100469.38
2019-02-05T05:11:03.138Z,100482.05
2019-02-05T05:13:33.870Z,100492.83
2019-02-05T05:16:04.454Z,100485.74
2019-02-05T05:18:34.960Z,100485.64
2019-02-05T05:21:05.594Z,100485.63
2019-02-05T05:23:36.263Z,100493.72
2019-02-05T05:26:06.882Z,100489.04
2019-02-05T05:28:40.569Z,100494.11
2019-02-05T05:31:11.170Z,100494.61
2019-02-05T05:33:41.719Z,100498.22
2019-02-05T05:36:12.347Z,100509.19
2019-02-05T05:38:42.814Z,100499.85
2019-02-05T05:41:13.334Z,100506.60
2019-02-05T05:43:43.809Z,100505.23
2019-02-05T05:46:14.415Z,100512.22
2019-02-05T05:48:44.968Z,100515.11
2019-02-05T05:51:15.504Z,100514.76
2019-02-05T05:53:45.966Z,100516.84
2019-02-05T05:56:16.452Z,100521.50
2019-02-05T05:58:47.001Z,100516.44
2019-02-05T06:01:17.502Z,100519.03
2019-02-05T06:03:48.039Z,100521.64
2019-02-05T06:06:18.670Z,100522.19
2019-02-05T06:08:49.159Z,100407.69
2019-02-05T06:11:19.943Z,100536.69
2019-02-05T06:13:50.563Z,100539.58
2019-02-05T06:16:21.079Z,100426.78
2019-02-05T06:18:51.572Z,100536.44
2019-02-05T06:21:22.065Z,100543.94
2019-02-05T06:23:52.890Z,100546.14
2019-02-05T06:26:23.852Z,100547.52
2019-02-05T06:28:54.474Z,100544.53
2019-02-05T06:31:25.026Z,100550.81
2019-02-05T06:33:55.577Z,100548.95
2019-02-05T06:36:26.084Z,100549.80
2019-02-05T06:38:56.576Z,100547.45
2019-02-05T06:41:27.207Z,100550.69
2019-02-05T06:43:59.948Z,100551.33
2019-02-05T06:46:30.668Z,100552.30
2019-02-05T06:49:01.603Z,100552.41
2019-02-05T06:51:32.092Z,100559.70
2019-02-05T06:54:03.091Z,100555.26
2019-02-05T06:56:33.562Z,100561.39
2019-02-05T06:59:04.194Z,100569.01
2019-02-05T07:01:34.846Z,100570.16
2019-02-05T07:04:05.978Z,100564.42
2019-02-05T07:06:36.649Z,100564.96
2019-02-05T07:09:10.110Z,100558.27
2019-02-05T07:11:40.647Z,100563.89
2019-02-05T07:14:11.260Z,100565.97
2019-02-05T07:16:41.761Z,100566.48
2019-02-05T07:19:12.329Z,100560.11
2019-02-05T07:21:43.074Z,100568.31
2019-02-05T07:24:13.928Z,100563.58
2019-02-05T07:26:44.442Z,100561.78
2019-02-05T07:29:14.928Z,100562.16
2019-02-05T07:31:45.448Z,100559.09
2019-02-05T07:34:15.972Z,100562.59
2019-02-05T07:36:47.148Z,100560.24
2019-02-05T07:39:17.883Z,100564.05
2019-02-05T07:41:48.393Z,100573.91
2019-02-05T07:44:18.908Z,100573.20
2019-02-05T07:46:49.396Z,100569.41
2019-02-05T07:49:19.903Z,100570.02
2019-02-05T07:51:50.551Z,100576.16
2019-02-05T07:54:21.276Z,100567.04
2019-02-05T07:56:51.804Z,100566.92
2019-02-05T07:59:22.442Z,100573.97
2019-02-05T08:01:53.070Z,100558.08
2019-02-05T08:04:23.627Z,100545.49
2019-02-05T08:06:54.100Z,100542.88
2019-02-05T08:09:24.913Z,100547.86
2019-02-05T08:11:55.381Z,100548.17
2019-02-05T08:14:25.906Z,100548.06
2019-02-05T08:16:56.469Z,100450.05
2019-02-05T08:19:26.956Z,100543.49
2019-02-05T08:21:57.538Z,100540.45
2019-02-05T08:24:28.167Z,100538.91
2019-02-05T08:26:58.653Z,100539.78
2019-02-05T08:29:29.215Z,100536.86
2019-02-05T08:31:59.696Z,100536.31
2019-02-05T08:34:30.201Z,100545.44
2019-02-05T08:37:00.675Z,100543.15
2019-02-05T08:39:31.229Z,100544.80
2019-02-05T08:42:03.102Z,100548.31
2019-02-05T08:44:33.586Z,100545.87
2019-02-05T08:47:04.233Z,100546.95
2019-02-05T08:49:34.762Z,100442.73
2019-02-05T08:52:05.475Z,100541.05
2019-02-05T08:54:36.106Z,100539.45
2019-02-05T08:57:06.700Z,100533.83
2019-02-05T08:59:37.195Z,100537.47
2019-02-05T09:02:08.638Z,100536.20
2019-02-05T09:04:39.177Z,100533.97
2019-02-05T09:07:09.715Z,100535.98
2019-02-05T09:09:40.256Z,100539.39
2019-02-05T09:12:10.952Z,100537.63
2019-02-05T09:14:41.479Z,100535.45
2019-02-05T09:17:12.013Z,100485.16
2019-02-05T09:19:42.577Z,100533.82
2019-02-05T09:22:13.116Z,100531.56
2019-02-05T09:24:43.665Z,100524.11
2019-02-05T09:27:14.249Z,100517.52
2019-02-05T09:29:44.747Z,100520.30
2019-02-05T09:32:15.226Z,100517.68
2019-02-05T09:34:46.009Z,100520.50
2019-02-05T09:37:16.584Z,100513.36
2019-02-05T09:39:47.383Z,100513.12
2019-02-05T09:42:18.145Z,100508.66
2019-02-05T09:44:48.632Z,100516.16
2019-02-05T09:47:19.197Z,100508.09
2019-02-05T09:49:49.907Z,100502.73
2019-02-05T09:52:20.419Z,100501.75
2019-02-05T09:54:51.363Z,100509.98
2019-02-05T09:57:22.058Z,100509.31
2019-02-05T09:59:52.820Z,100500.86
2019-02-05T10:02:23.376Z,100489.95
2019-02-05T10:04:53.904Z,100478.26
2019-02-05T10:07:24.399Z,100476.23
2019-02-05T10:09:55.230Z,100466.52
2019-02-05T10:12:25.780Z,100460.83
2019-02-05T10:14:56.332Z,100454.98
2019-02-05T10:17:26.905Z,100455.56
2019-02-05T10:19:57.393Z,100450.10
2019-02-05T10:22:28.094Z,100449.80
2019-02-05T10:24:58.861Z,100445.97
2019-02-05T10:27:35.610Z,100448.23
2019-02-05T10:30:08.846Z,100434.38
2019-02-05T10:32:39.318Z,100435.47
2019-02-05T10:35:09.983Z,100432.84
2019-02-05T10:37:40.630Z,100434.52
2019-02-05T10:40:11.402Z,100432.92
2019-02-05T10:42:44.118Z,100435.06
2019-02-05T10:45:14.972Z,100302.44
2019-02-05T10:47:45.558Z,100429.23
2019-02-05T10:50:17.174Z,100421.76
2019-02-05T10:52:48.297Z,100355.75
2019-02-05T10:55:19.355Z,100421.11
2019-02-05T10:57:50.514Z,100418.11
2019-02-05T11:00:26.633Z,100418.00
2019-02-05T11:02:58.065Z,100414.70
2019-02-05T11:05:30.026Z,100404.95
2019-02-05T11:08:00.706Z,100406.41
2019-02-05T11:10:31.273Z,100408.66
2019-02-05T11:13:02.049Z,100398.08
2019-02-05T11:15:33.703Z,100400.30
2019-02-05T11:18:05.392Z,100395.11
2019-02-05T11:21:00.282Z,100391.25
2019-02-05T11:23:30.892Z,100397.77
2019-02-05T11:26:01.401Z,100402.89
2019-02-05T11:28:32.081Z,100397.16
2019-02-05T11:33:50.695Z,100387.70
2019-02-05T11:36:21.183Z,100395.98
2019-02-05T11:38:51.749Z,100395.38
2019-02-05T11:41:22.946Z,100395.86
2019-02-05T11:43:53.354Z,100391.25
2019-02-05T11:46:23.988Z,100383.27
2019-02-05T11:49:01.314Z,100383.58
2019-02-05T11:51:31.898Z,100381.50
2019-02-05T11:54:02.789Z,100367.55
2019-02-05T11:56:33.211Z,100370.83
2019-02-05T11:59:03.643Z,100365.51
2019-02-05T12:01:39.082Z,100367.18
2019-02-05T12:04:08.486Z,100365.82
2019-02-05T12:06:39.042Z,100364.05
2019-02-05T12:09:19.367Z,100351.56
2019-02-05T12:11:50.918Z,100346.65
2019-02-05T12:14:21.326Z,100351.11
2019-02-05T12:16:52.163Z,100345.11
2019-02-05T12:19:22.691Z,100344.84
2019-02-05T12:21:53.764Z,100341.05
2019-02-05T12:24:24.284Z,100348.81
2019-02-05T12:26:54.952Z,100340.39
2019-02-05T12:29:26.148Z,100355.23
2019-02-05T12:31:56.957Z,100345.41
2019-02-05T12:34:27.787Z,100355.66
2019-02-05T12:37:01.888Z,100340.92
2019-02-05T12:39:32.374Z,100336.34
2019-02-05T12:42:02.931Z,100339.66
2019-02-05T12:44:33.390Z,100334.77
2019-02-05T12:47:05.265Z,100326.80
2019-02-05T12:49:36.617Z,100317.55
2019-02-05T12:52:07.283Z,100318.00
2019-02-05T12:54:37.794Z,100308.11
2019-02-05T12:57:10.231Z,100308.45
2019-02-05T12:59:40.635Z,100305.75
2019-02-05T13:02:11.294Z,100307.78
2019-02-05T13:04:42.011Z,100304.52
2019-02-05T13:07:12.452Z,100304.27
2019-02-05T13:09:42.899Z,100305.00
2019-02-05T13:12:13.549Z,100301.66
2019-02-05T13:14:43.962Z,100298.17
2019-02-05T13:17:14.753Z,100296.66
2019-02-05T13:19:47.503Z,100291.63
2019-02-05T13:22:18.373Z,100291.35
2019-02-05T13:24:48.842Z,100287.16
2019-02-05T13:27:19.384Z,100282.56
2019-02-05T13:29:50.121Z,100273.16
2019-02-05T13:32:20.555Z,100272.86
2019-02-05T13:34:51.028Z,100271.01
2019-02-05T13:37:23.806Z,100269.09
2019-02-05T13:39:54.515Z,100265.03
2019-02-05T13:42:25.254Z,100270.98
2019-02-05T13:44:55.887Z,100261.45
2019-02-05T13:47:26.351Z,100253.18
2019-02-05T13:49:56.845Z,100260.30
2019-02-05T13:52:27.403Z,100257.27
2019-02-05T13:54:57.831Z,100261.52
2019-02-05T13:57:28.422Z,100258.81
2019-02-05T13:59:58.907Z,100259.36
2019-02-05T14:02:29.330Z,100252.99
2019-02-05T14:04:59.908Z,100252.20
2019-02-05T14:07:30.348Z,100257.66
2019-02-05T14:10:01.080Z,100250.81
2019-02-05T14:12:31.650Z,100246.38
2019-02-05T14:15:02.170Z,100246.86
2019-02-05T14:17:33.238Z,100247.89
2019-02-05T14:20:03.893Z,100248.03
2019-02-05T14:22:34.404Z,100251.84
2019-02-05T14:25:06.097Z,100258.09
2019-02-05T14:27:36.709Z,100261.29
2019-02-05T14:30:10.110Z,100260.36
2019-02-05T14:32:40.574Z,100251.98
2019-02-05T14:35:11.257Z,100254.66
2019-02-05T14:37:41.957Z,100264.48
2019-02-05T14:40:15.003Z,100258.75
2019-02-05T14:42:45.494Z,100259.20
2019-02-05T14:45:17.562Z,100257.17
2019-02-05T14:47:48.108Z,100257.65
2019-02-05T14:50:22.146Z,100258.34
2019-02-05T14:52:52.617Z,100257.19
2019-02-05T14:55:23.458Z,100249.17
2019-02-05T14:57:54.090Z,100248.59
2019-02-05T15:00:27.475Z,100258.50
2019-02-05T15:03:02.090Z,100250.41
2019-02-05T15:05:32.386Z,100256.05
2019-02-05T15:08:05.764Z,100257.64
2019-02-05T15:10:35.213Z,100258.64
2019-02-05T15:13:06.511Z,100266.11
2019-02-05T15:15:37.318Z,100262.52
2019-02-05T15:18:10.003Z,100264.56
2019-02-05T15:20:42.690Z,100267.30
2019-02-05T15:23:13.351Z,100273.39
2019-02-05T15:25:44.159Z,100265.36
2019-02-05T15:28:15.745Z,100267.98
2019-02-05T15:30:47.907Z,100263.85
2019-02-05T15:33:41.748Z,100267.16
2019-02-05T15:36:22.311Z,100151.66
2019-02-05T15:38:52.759Z,100281.58
2019-02-05T15:41:23.509Z,100282.20
2019-02-05T15:43:53.915Z,100282.38
2019-02-05T15:46:24.642Z,100282.72
2019-02-05T15:48:55.141Z,100276.86
2019-02-05T15:51:26.058Z,100288.11
2019-02-05T15:53:56.982Z,100273.58
2019-02-05T15:56:27.689Z,100274.60
2019-02-05T15:58:59.012Z,100271.91
2019-02-05T16:01:29.831Z,100272.67
2019-02-05T16:04:00.422Z,100275.55
2019-02-05T16:06:31.290Z,100280.81
2019-02-05T16:09:01.823Z,100279.67
2019-02-05T16:11:32.371Z,100285.86
2019-02-05T16:14:02.876Z,100287.10
2019-02-05T16:16:33.334Z,100297.59
2019-02-05T16:19:03.770Z,100307.47
2019-02-05T16:21:34.253Z,100315.56
2019-02-05T16:24:16.965Z,100320.17
2019-02-05T16:26:47.782Z,100321.36
2019-02-05T16:29:18.234Z,100319.72
2019-02-05T16:31:48.974Z,100322.59
2019-02-05T16:34:19.391Z,100323.63
2019-02-05T16:36:49.849Z,100322.97
2019-02-05T16:39:20.373Z,100306.17
2019-02-05T16:41:50.842Z,100317.18
2019-02-05T16:44:21.264Z,100311.00
2019-02-05T16:46:51.731Z,100315.76
2019-02-05T16:49:22.668Z,100311.52
2019-02-05T16:51:53.145Z,100310.77
2019-02-05T16:54:23.946Z,100312.66
2019-02-05T16:56:54.552Z,100320.52
2019-02-05T16:59:25.025Z,100323.63
2019-02-05T17:01:57.255Z,100325.45
2019-02-05T17:04:27.644Z,100198.86
2019-02-05T17:06:58.193Z,100324.53
2019-02-05T17:09:28.879Z,100322.64
2019-02-05T17:11:59.482Z,100319.36
2019-02-05T17:14:30.070Z,100316.11
2019-02-05T17:17:00.537Z,100316.71
2019-02-05T17:19:31.888Z,100311.28
2019-02-05T17:22:02.525Z,100309.69
2019-02-05T17:24:33.000Z,100313.91
2019-02-05T17:27:03.426Z,100311.58
2019-02-05T17:29:33.894Z,100319.72
2019-02-05T17:32:07.628Z,100327.93
2019-02-05T17:34:36.918Z,100334.18
2019-02-05T17:37:07.592Z,100328.30
2019-02-05T17:39:38.005Z,100322.88
2019-02-05T17:42:08.574Z,100321.73
2019-02-05T17:44:38.993Z,100320.98
2019-02-05T17:47:09.661Z,100324.45
2019-02-05T17:49:40.207Z,100329.63
2019-02-05T17:52:10.645Z,100332.20
2019-02-05T17:54:41.085Z,100327.05
2019-02-05T17:57:11.561Z,100330.19
2019-02-05T17:59:42.074Z,100343.67
2019-02-05T18:02:13.156Z,100339.06
2019-02-05T18:04:43.629Z,100337.08
2019-02-05T18:07:14.092Z,100335.25
2019-02-05T18:09:44.524Z,100332.97
2019-02-05T18:12:14.982Z,100329.89
2019-02-05T18:14:45.506Z,100338.97
2019-02-05T18:17:15.978Z,100340.75
2019-02-05T18:19:46.498Z,100340.27
2019-02-05T18:22:17.049Z,100341.67
2019-02-05T18:24:47.477Z,100347.62
2019-02-05T18:27:17.947Z,100342.78
2019-02-05T18:29:48.551Z,100341.85
2019-02-05T18:32:19.012Z,100341.73
2019-02-05T18:34:49.455Z,100351.42
2019-02-05T18:37:19.877Z,100350.19
2019-02-05T18:39:50.309Z,100346.66
2019-02-05T18:42:20.790Z,100348.14
2019-02-05T18:44:51.268Z,100346.16
2019-02-05T18:47:21.869Z,100344.08
2019-02-05T18:49:52.294Z,100346.50
2019-02-05T18:52:22.762Z,100334.94
2019-02-05T18:54:53.238Z,100339.00
2019-02-05T18:57:23.986Z,100340.27
2019-02-05T18:59:54.433Z,100335.67
2019-02-05T19:02:24.862Z,100328.30
2019-02-05T19:04:55.334Z,100329.73
2019-02-05T19:07:25.756Z,100337.97
2019-02-05T19:09:56.256Z,100330.91
2019-02-05T19:12:26.772Z,100327.59
2019-02-05T19:14:57.236Z,100329.06
2019-02-05T19:17:27.658Z,100321.23
2019-02-05T19:19:58.131Z,100320.83
2019-02-05T19:22:28.568Z,100321.86
2019-02-05T19:25:02.329Z,100327.27
2019-02-05T19:27:32.815Z,100323.83
2019-02-05T19:30:03.322Z,100321.73
2019-02-05T19:32:33.782Z,100325.91
2019-02-05T19:35:04.737Z,100315.41
2019-02-05T19:37:35.585Z,100307.59
2019-02-05T19:40:06.674Z,100307.05
2019-02-05T19:42:37.085Z,100186.09
2019-02-05T19:45:42.026Z,100313.41
2019-02-05T19:48:19.586Z,100316.94
2019-02-05T19:50:50.436Z,100313.94
2019-02-05T19:53:20.989Z,100307.30
2019-02-05T19:55:51.584Z,100300.33
2019-02-05T19:58:22.052Z,100298.68
2019-02-05T20:00:52.756Z,100297.45
2019-02-05T20:03:23.194Z,100312.95
2019-02-05T20:05:53.661Z,100303.98
2019-02-05T20:08:26.790Z,100309.92
2019-02-05T20:10:56.220Z,100314.59
2019-02-05T20:13:26.652Z,100309.72
2019-02-05T20:15:57.345Z,100308.77
2019-02-05T20:18:27.807Z,100313.98
2019-02-05T20:20:58.261Z,100312.01
2019-02-05T20:23:28.689Z,100309.39
2019-02-05T20:25:59.166Z,100319.19
2019-02-05T20:28:29.637Z,100308.66
2019-02-05T20:31:00.408Z,100299.30
2019-02-05T20:33:30.878Z,100309.14
2019-02-05T20:36:01.358Z,100318.41
2019-02-05T20:38:32.026Z,100315.17
2019-02-05T20:41:02.502Z,100311.98
2019-02-05T20:43:33.001Z,100313.73
2019-02-05T20:46:03.509Z,100314.18
2019-02-05T20:48:34.051Z,100309.80
2019-02-05T20:51:04.752Z,100313.24
2019-02-05T20:53:35.226Z,100315.95
2019-02-05T20:56:06.213Z,100304.83
2019-02-05T20:58:36.729Z,100299.92
2019-02-05T21:01:07.579Z,100303.48
2019-02-05T21:03:37.993Z,100306.92
2019-02-05T21:06:08.767Z,100296.09
2019-02-05T21:08:39.240Z,100277.16
2019-02-05T21:11:09.740Z,100267.59
2019-02-05T21:13:40.273Z,100278.84
2019-02-05T21:16:10.846Z,100272.19
2019-02-05T21:18:41.345Z,100269.89
2019-02-05T21:21:11.853Z,100262.20
2019-02-05T21:23:42.360Z,100268.84
2019-02-05T21:26:12.923Z,100268.96
2019-02-05T21:28:43.437Z,100271.98
2019-02-05T21:31:13.923Z,100258.38
2019-02-05T21:33:44.431Z,100267.23
2019-02-05T21:36:14.902Z,100264.16
2019-02-05T21:38:45.638Z,100265.10
2019-02-05T21:41:16.166Z,100279.98
2019-02-05T21:43:46.838Z,100272.77
2019-02-05T21:46:17.248Z,100276.83
2019-02-05T21:48:47.703Z,100268.18
2019-02-05T21:51:18.203Z,100265.88
2019-02-05T21:53:48.677Z,100267.55
2019-02-05T21:56:19.204Z,100256.77
2019-02-05T21:58:50.005Z,100257.52
2019-02-05T22:01:20.542Z,100256.78
2019-02-05T22:03:51.016Z,100256.28
2019-02-05T22:06:21.596Z,100244.93
2019-02-05T22:08:52.130Z,100241.90
2019-02-05T22:11:22.595Z,100229.03
2019-02-05T22:13:53.380Z,100228.45
2019-02-05T22:16:23.841Z,100240.13
2019-02-05T22:18:54.295Z,100238.73
2019-02-05T22:21:25.071Z,100241.08
2019-02-05T22:23:55.597Z,100252.62
2019-02-05T22:26:26.095Z,100255.13
2019-02-05T22:28:56.833Z,100256.63
2019-02-05T22:31:27.309Z,100251.36
2019-02-05T22:33:57.778Z,100248.55
2019-02-05T22:36:28.270Z,100242.52
2019-02-05T22:38:58.727Z,100235.40
2019-02-05T22:41:29.509Z,100236.22
2019-02-05T22:43:59.957Z,100237.69
2019-02-05T22:46:30.422Z,100232.83
2019-02-05T22:49:00.896Z,100226.58
2019-02-05T22:51:31.411Z,100224.22
2019-02-05T22:54:01.921Z,100217.46
2019-02-05T22:56:32.461Z,100205.84
2019-02-05T22:59:03.206Z,100196.48
2019-02-05T23:01:59.343Z,100202.61
2019-02-05T23:05:13.583Z,100198.17
2019-02-05T23:07:44.163Z,100200.77
2019-02-05T23:10:20.533Z,100185.58
2019-02-05T23:13:02.525Z,100183.81
2019-02-05T23:15:33.039Z,100175.94
2019-02-05T23:18:03.605Z,100181.02
2019-02-05T23:20:34.386Z,100182.81
2019-02-05T23:23:05.087Z,100183.81
2019-02-05T23:25:35.640Z,100189.66
2019-02-05T23:28:06.314Z,100181.64
2019-02-05T23:30:37.027Z,100188.17
2019-02-05T23:33:07.615Z,100184.84
2019-02-05T23:35:38.078Z,100179.58
2019-02-05T23:38:08.579Z,100175.73
2019-02-05T23:40:39.044Z,100175.56
2019-02-05T23:43:09.642Z,100172.41
2019-02-05T23:45:40.200Z,100175.14
2019-02-05T23:48:11.025Z,100169.11
2019-02-05T23:50:41.626Z,100166.11
2019-02-05T23:53:12.094Z,100165.80
2019-02-05T23:55:42.593Z,100165.59
2019-02-05T23:58:13.160Z,100172.75
